Impacts TAF Board INFO
FOR SITUATIONAL AWARENESS. NOT TO BE USED FOR FLIGHT PLANNING PURPOSES.
IDs:

KANB - Anniston Metro, AL, US

Issued at 2338 UTC 19 Nov 2017
Updated at 0353 UTC 20 Nov 2017
Potential Impact None Slight Moderate High
Time0253Z 20/04Z 20/05Z 20/06Z 20/07Z 20/08Z 20/09Z 20/10Z 20/11Z 20/12Z 20/13Z 20/14Z 20/15Z 20/16Z>>
Type OBS PRVL PRVL PRVL PRVL PRVL PRVL PRVL PRVL PRVL PRVL PRVL PRVL PRVL
VIS 10 >6 >6 >6 >6 >6 >6 >6 >6 >6 >6 >6 >6 >6
CIG -- -- -- -- -- -- -- -- -- -- -- -- -- --
Cover CLR SKC SKC SKC SKC SKC SKC SKC SKC SKC SKC SKC SCT SCT
FltCat VFR VFR VFR VFR VFR VFR VFR VFR VFR VFR VFR VFR VFR VFR
WX -- -- -- -- -- -- -- -- -- -- -- -- -- --
WDir 310 340 340 VRB VRB VRB VRB VRB VRB VRB VRB VRB 60 60
WSpd 6 5 5 2 2 2 2 2 2 2 2 2 5 5
WGst -- -- -- -- -- -- -- -- -- -- -- -- -- --

Raw TAF
KANB 192338Z 2000/2024 34005KT P6SM SKC
  FM200600 VRB02KT P6SM SKC
  FM201500 06005KT P6SM SCT300


Raw METAR
KANB 200253Z AUTO 31006KT 10SM CLR 07/M02 A3018 RMK AO2 SLP227 T00671017 53013
KANB 200153Z AUTO 34005KT 10SM CLR 07/M01 A3017 RMK AO2 SLP221 T00721011
KANB 200053Z AUTO 26003KT 10SM CLR 07/M01 A3016 RMK AO2 SLP220 T00721006

METAR Board
Radar Display
Forecast Discussion

FOR SITUATIONAL AWARENESS. NOT TO BE USED FOR FLIGHT PLANNING PURPOSES.